createdAt,value
2022-12-17T00:01:12.040Z,4.10
2022-12-17T00:02:32.277Z,3.60
2022-12-17T00:03:53.136Z,5.68
2022-12-17T00:05:17.125Z,4.72
2022-12-17T00:06:37.224Z,3.17
2022-12-17T00:07:57.431Z,3.67
2022-12-17T00:09:17.566Z,3.13
2022-12-17T00:10:48.387Z,4.32
2022-12-17T00:12:10.258Z,6.93
2022-12-17T00:13:40.801Z,3.30
2022-12-17T00:15:00.882Z,3.67
2022-12-17T00:16:20.811Z,3.05
2022-12-17T00:17:40.876Z,4.10
2022-12-17T00:19:01.379Z,4.40
2022-12-17T00:20:22.137Z,4.05
2022-12-17T00:21:42.222Z,3.22
2022-12-17T00:23:02.690Z,6.82
2022-12-17T00:24:23.012Z,2.53
2022-12-17T00:25:44.618Z,7.13
2022-12-17T00:27:05.606Z,4.55
2022-12-17T00:28:30.249Z,2.60
2022-12-17T00:29:50.777Z,2.47
2022-12-17T00:31:12.033Z,5.78
2022-12-17T00:32:32.610Z,2.47
2022-12-17T00:33:53.161Z,4.07
2022-12-17T00:35:13.951Z,2.65
2022-12-17T00:36:34.029Z,2.40
2022-12-17T00:37:56.455Z,5.68
2022-12-17T00:39:16.659Z,2.55
2022-12-17T00:40:37.337Z,2.65
2022-12-17T00:41:57.523Z,3.33
2022-12-17T00:43:28.599Z,3.28
2022-12-17T00:44:49.416Z,2.42
2022-12-17T00:46:10.522Z,4.97
2022-12-17T00:47:30.807Z,2.97
2022-12-17T00:48:51.049Z,3.00
2022-12-17T00:50:12.324Z,3.47
2022-12-17T00:51:32.606Z,2.30
2022-12-17T00:52:52.993Z,2.65
2022-12-17T00:54:16.742Z,4.25
2022-12-17T00:55:37.205Z,3.00
2022-12-17T00:56:57.548Z,5.28
2022-12-17T00:58:17.785Z,6.82
2022-12-17T00:59:38.245Z,4.20
2022-12-17T01:00:58.567Z,3.85
2022-12-17T01:02:19.069Z,10.02
2022-12-17T01:03:39.967Z,2.55
2022-12-17T01:05:00.249Z,2.58
2022-12-17T01:06:21.773Z,3.10
2022-12-17T01:07:42.082Z,2.65
2022-12-17T01:09:02.978Z,6.50
2022-12-17T01:10:23.516Z,3.92
2022-12-17T01:11:44.319Z,2.70
2022-12-17T01:13:04.710Z,5.55
2022-12-17T01:14:26.692Z,4.45
2022-12-17T01:15:47.165Z,7.60
2022-12-17T01:17:07.632Z,3.47
2022-12-17T01:18:28.228Z,3.97
2022-12-17T01:19:48.568Z,2.50
2022-12-17T01:21:15.598Z,4.00
2022-12-17T01:22:35.456Z,3.25
2022-12-17T01:23:55.361Z,3.50
2022-12-17T01:25:17.040Z,3.20
2022-12-17T01:26:36.963Z,4.05
2022-12-17T01:27:56.889Z,2.47
2022-12-17T01:29:22.176Z,2.97
2022-12-17T01:30:42.237Z,2.97
2022-12-17T01:32:04.908Z,5.63
2022-12-17T01:33:26.698Z,2.65
2022-12-17T01:34:51.330Z,4.20
2022-12-17T01:36:15.596Z,4.05
2022-12-17T01:37:36.018Z,2.90
2022-12-17T01:38:56.237Z,3.25
2022-12-17T01:40:18.374Z,2.67
2022-12-17T01:41:38.951Z,4.07
2022-12-17T01:43:01.434Z,4.93
2022-12-17T01:44:55.299Z,2.50
2022-12-17T01:46:16.202Z,3.58
2022-12-17T01:47:36.809Z,3.25
2022-12-17T01:49:03.584Z,2.90
2022-12-17T01:50:23.856Z,3.60
2022-12-17T01:51:45.049Z,2.58
2022-12-17T01:53:05.761Z,3.30
2022-12-17T01:54:26.553Z,2.20
2022-12-17T01:55:47.978Z,2.30
2022-12-17T01:57:08.786Z,2.90
2022-12-17T01:58:28.934Z,2.72
2022-12-17T02:00:09.795Z,2.88
2022-12-17T02:01:36.260Z,2.70
2022-12-17T02:02:56.854Z,2.63
2022-12-17T02:04:17.160Z,1.95
2022-12-17T02:05:42.102Z,2.10
2022-12-17T02:07:14.502Z,2.47
2022-12-17T02:08:45.795Z,2.22
2022-12-17T02:10:44.549Z,2.97
2022-12-17T02:12:26.226Z,2.38
2022-12-17T02:13:53.495Z,2.03
2022-12-17T02:16:05.260Z,1.83
2022-12-17T02:17:32.369Z,2.22
2022-12-17T02:19:18.046Z,2.72
2022-12-17T02:20:56.779Z,2.58
2022-12-17T02:22:24.737Z,2.58
2022-12-17T02:23:59.741Z,2.67
2022-12-17T02:25:44.616Z,2.22
2022-12-17T02:27:09.932Z,4.43
2022-12-17T02:28:31.319Z,2.10
2022-12-17T02:29:56.731Z,2.28
2022-12-17T02:31:17.440Z,2.70
2022-12-17T02:32:38.526Z,2.08
2022-12-17T02:33:59.247Z,2.72
2022-12-17T02:35:20.745Z,2.05
2022-12-17T02:36:40.903Z,2.25
2022-12-17T02:38:08.456Z,2.00
2022-12-17T02:39:29.308Z,2.13
2022-12-17T02:40:50.066Z,2.40
2022-12-17T02:42:14.848Z,2.08
2022-12-17T02:43:35.991Z,1.55
2022-12-17T02:44:57.483Z,2.05
2022-12-17T02:46:17.633Z,2.08
2022-12-17T02:47:39.092Z,1.95
2022-12-17T02:49:00.548Z,2.50
2022-12-17T02:50:25.199Z,1.95
2022-12-17T02:51:45.956Z,2.13
2022-12-17T02:53:07.567Z,2.40
2022-12-17T02:54:27.799Z,2.53
2022-12-17T02:55:48.136Z,2.38
2022-12-17T02:57:09.351Z,2.28
2022-12-17T02:58:29.607Z,1.80
2022-12-17T02:59:50.075Z,2.13
2022-12-17T03:01:10.070Z,1.65
2022-12-17T03:02:30.682Z,1.38
2022-12-17T03:03:50.806Z,1.60
2022-12-17T03:05:42.828Z,2.03
2022-12-17T03:06:51.488Z,2.60
2022-12-17T03:08:11.312Z,2.60
2022-12-17T03:09:31.372Z,2.15
2022-12-17T03:10:51.937Z,2.38
2022-12-17T03:12:12.488Z,1.90
2022-12-17T03:13:46.701Z,2.17
2022-12-17T03:15:06.997Z,1.95
2022-12-17T03:16:37.269Z,1.67
2022-12-17T03:17:58.322Z,1.52
2022-12-17T03:19:18.995Z,1.70
2022-12-17T03:20:39.460Z,1.88
2022-12-17T03:21:59.600Z,1.40
2022-12-17T03:23:22.332Z,2.00
2022-12-17T03:24:42.466Z,2.55
2022-12-17T03:26:02.993Z,1.60
2022-12-17T03:27:36.812Z,1.90
2022-12-17T03:28:56.882Z,2.05
2022-12-17T03:30:17.351Z,1.65
2022-12-17T03:31:39.150Z,4.50
2022-12-17T03:32:59.292Z,1.42
2022-12-17T03:34:19.521Z,1.63
2022-12-17T03:35:39.738Z,1.80
2022-12-17T03:37:00.250Z,1.65
2022-12-17T03:38:20.608Z,1.48
2022-12-17T03:39:40.855Z,1.60
2022-12-17T03:41:01.219Z,1.58
2022-12-17T03:42:21.488Z,1.80
2022-12-17T03:43:41.738Z,1.40
2022-12-17T03:45:01.854Z,1.70
2022-12-17T03:46:22.002Z,3.00
2022-12-17T03:47:42.436Z,1.65
2022-12-17T03:49:02.467Z,1.40
2022-12-17T03:50:23.826Z,1.65
2022-12-17T03:51:43.884Z,3.65
2022-12-17T03:53:04.094Z,3.95
2022-12-17T03:54:24.302Z,1.77
2022-12-17T03:55:44.546Z,2.22
2022-12-17T03:57:04.683Z,1.95
2022-12-17T03:58:24.544Z,1.70
2022-12-17T03:59:44.796Z,1.50
2022-12-17T04:01:05.007Z,1.95
2022-12-17T04:02:25.370Z,1.73
2022-12-17T04:03:46.214Z,1.30
2022-12-17T04:05:06.563Z,1.67
2022-12-17T04:06:26.856Z,1.65
2022-12-17T04:07:47.055Z,1.55
2022-12-17T04:09:07.631Z,2.28
2022-12-17T04:10:28.328Z,1.95
2022-12-17T04:11:48.489Z,1.65
2022-12-17T04:13:08.742Z,1.20
2022-12-17T04:14:29.063Z,1.77
2022-12-17T04:15:49.844Z,1.42
2022-12-17T04:17:10.408Z,1.48
2022-12-17T04:18:30.600Z,1.80
2022-12-17T04:19:50.722Z,4.85
2022-12-17T04:21:10.751Z,1.30
2022-12-17T04:22:35.892Z,1.40
2022-12-17T04:23:55.619Z,3.65
2022-12-17T04:25:15.648Z,1.42
2022-12-17T04:26:35.954Z,1.65
2022-12-17T04:27:56.600Z,1.45
2022-12-17T04:29:16.750Z,1.55
2022-12-17T04:30:37.157Z,1.65
2022-12-17T04:31:57.698Z,1.15
2022-12-17T04:33:18.100Z,1.83
2022-12-17T04:34:38.325Z,1.92
2022-12-17T04:35:58.418Z,4.88
2022-12-17T04:37:18.141Z,1.38
2022-12-17T04:38:38.830Z,1.77
2022-12-17T04:39:58.980Z,1.45
2022-12-17T04:41:19.625Z,2.55
2022-12-17T04:42:39.853Z,1.20
2022-12-17T04:44:03.172Z,1.17
2022-12-17T04:45:24.589Z,1.25
2022-12-17T04:46:44.446Z,1.60
2022-12-17T04:48:04.800Z,2.38
2022-12-17T04:49:25.233Z,1.83
2022-12-17T04:50:45.759Z,1.95
2022-12-17T04:52:05.978Z,1.65
2022-12-17T04:53:27.149Z,1.20
2022-12-17T04:54:47.459Z,2.05
2022-12-17T04:56:07.747Z,1.65
2022-12-17T04:57:28.161Z,2.10
2022-12-17T04:58:48.345Z,1.50
2022-12-17T05:00:08.728Z,2.90
2022-12-17T05:01:29.443Z,1.70
2022-12-17T05:02:49.907Z,3.45
2022-12-17T05:04:10.020Z,2.25
2022-12-17T05:05:30.302Z,1.58
2022-12-17T05:06:50.738Z,1.55
2022-12-17T05:08:15.166Z,1.63
2022-12-17T05:09:35.430Z,1.70
2022-12-17T05:10:55.262Z,1.65
2022-12-17T05:12:15.548Z,1.70
2022-12-17T05:13:36.114Z,1.60
2022-12-17T05:14:56.553Z,1.60
2022-12-17T05:16:16.906Z,1.77
2022-12-17T05:17:37.043Z,1.65
2022-12-17T05:18:57.239Z,1.52
2022-12-17T05:20:17.800Z,1.98
2022-12-17T05:21:38.058Z,1.38
2022-12-17T05:22:58.356Z,1.73
2022-12-17T05:24:18.656Z,1.58
2022-12-17T05:25:38.936Z,2.45
2022-12-17T05:26:59.107Z,1.65
2022-12-17T05:28:19.642Z,2.10
2022-12-17T05:29:40.223Z,1.95
2022-12-17T05:31:01.078Z,1.73
2022-12-17T05:32:21.483Z,1.63
2022-12-17T05:33:41.966Z,3.33
2022-12-17T05:35:02.287Z,1.92
2022-12-17T05:36:24.521Z,1.70
2022-12-17T05:37:44.792Z,1.65
2022-12-17T05:39:06.057Z,1.50
2022-12-17T05:40:27.466Z,1.60
2022-12-17T05:41:47.648Z,1.67
2022-12-17T05:43:18.905Z,2.30
2022-12-17T05:44:39.283Z,1.80
2022-12-17T05:46:00.489Z,2.28
2022-12-17T05:47:20.602Z,1.70
2022-12-17T05:48:40.874Z,2.38
2022-12-17T05:50:01.025Z,2.10
2022-12-17T05:51:21.137Z,2.10
2022-12-17T05:52:41.499Z,1.70
2022-12-17T05:54:02.032Z,2.08
2022-12-17T05:55:22.184Z,2.05
2022-12-17T05:56:42.280Z,1.70
2022-12-17T05:58:02.620Z,2.10
2022-12-17T05:59:22.958Z,2.00
2022-12-17T06:00:43.334Z,1.90
2022-12-17T06:02:03.604Z,1.77
2022-12-17T06:03:24.583Z,1.83
2022-12-17T06:04:45.072Z,1.75
2022-12-17T06:06:05.838Z,1.40
2022-12-17T06:07:26.415Z,1.67
2022-12-17T06:08:47.336Z,1.80
2022-12-17T06:10:07.549Z,1.50
2022-12-17T06:11:28.417Z,1.58
2022-12-17T06:12:48.551Z,6.03
2022-12-17T06:14:09.253Z,2.00
2022-12-17T06:15:30.615Z,1.40
2022-12-17T06:16:50.898Z,1.35
2022-12-17T06:18:16.691Z,1.45
2022-12-17T06:19:37.217Z,1.50
2022-12-17T06:20:57.548Z,3.22
2022-12-17T06:22:17.670Z,1.50
2022-12-17T06:23:37.866Z,2.70
2022-12-17T06:24:58.513Z,2.00
2022-12-17T06:26:18.652Z,1.70
2022-12-17T06:27:38.691Z,1.60
2022-12-17T06:28:59.028Z,3.08
2022-12-17T06:30:19.307Z,1.38
2022-12-17T06:31:39.603Z,1.80
2022-12-17T06:33:00.013Z,2.05
2022-12-17T06:34:20.195Z,1.55
2022-12-17T06:35:40.438Z,2.50
2022-12-17T06:37:00.739Z,1.98
2022-12-17T06:38:23.346Z,2.30
2022-12-17T06:39:43.714Z,2.35
2022-12-17T06:41:03.839Z,2.05
2022-12-17T06:42:24.017Z,1.60
2022-12-17T06:43:44.415Z,1.75
2022-12-17T06:45:06.950Z,1.33
2022-12-17T06:46:27.040Z,2.88
2022-12-17T06:47:47.832Z,2.97
2022-12-17T06:49:08.199Z,1.55
2022-12-17T06:50:28.866Z,1.75
2022-12-17T06:51:49.112Z,1.73
2022-12-17T06:53:23.676Z,1.83
2022-12-17T06:54:44.068Z,2.05
2022-12-17T06:56:04.078Z,1.40
2022-12-17T06:57:24.219Z,1.80
2022-12-17T06:58:44.664Z,1.98
2022-12-17T07:00:04.776Z,1.50
2022-12-17T07:01:25.412Z,1.77
2022-12-17T07:02:47.277Z,1.45
2022-12-17T07:04:07.440Z,1.35
2022-12-17T07:05:27.678Z,2.75
2022-12-17T07:06:48.458Z,1.70
2022-12-17T07:08:18.360Z,1.30
2022-12-17T07:09:38.890Z,1.90
2022-12-17T07:10:59.113Z,1.40
2022-12-17T07:12:19.818Z,2.20
2022-12-17T07:13:40.417Z,1.60
2022-12-17T07:15:00.807Z,2.63
2022-12-17T07:16:21.016Z,2.08
2022-12-17T07:17:41.153Z,2.03
2022-12-17T07:19:01.312Z,2.25
2022-12-17T07:20:22.619Z,1.67
2022-12-17T07:21:42.929Z,2.60
2022-12-17T07:23:03.147Z,2.20
2022-12-17T07:24:25.903Z,2.00
2022-12-17T07:25:46.548Z,2.25
2022-12-17T07:27:06.686Z,1.42
2022-12-17T07:28:27.315Z,2.05
2022-12-17T07:29:47.629Z,1.92
2022-12-17T07:31:07.811Z,2.00
2022-12-17T07:32:28.088Z,1.90
2022-12-17T07:33:48.722Z,2.67
2022-12-17T07:35:09.117Z,3.17
2022-12-17T07:36:29.506Z,1.73
2022-12-17T07:37:49.986Z,2.78
2022-12-17T07:39:10.365Z,2.40
2022-12-17T07:40:30.620Z,1.65
2022-12-17T07:41:50.801Z,2.15
2022-12-17T07:43:10.977Z,1.90
2022-12-17T07:44:31.184Z,2.30
2022-12-17T07:45:51.377Z,2.42
2022-12-17T07:47:11.844Z,2.60
2022-12-17T07:48:31.864Z,2.75
2022-12-17T07:49:52.139Z,2.67
2022-12-17T07:51:12.521Z,2.35
2022-12-17T07:52:32.610Z,1.45
2022-12-17T07:53:53.258Z,2.45
2022-12-17T07:55:18.062Z,2.15
2022-12-17T07:56:39.078Z,1.80
2022-12-17T07:57:59.165Z,2.53
2022-12-17T07:59:19.504Z,2.03
2022-12-17T08:00:42.425Z,1.98
2022-12-17T08:02:06.190Z,1.67
2022-12-17T08:03:28.373Z,1.90
2022-12-17T08:04:48.833Z,2.50
2022-12-17T08:06:08.956Z,1.95
2022-12-17T08:07:29.015Z,1.45
2022-12-17T08:08:49.176Z,2.58
2022-12-17T08:10:09.374Z,1.50
2022-12-17T08:11:29.702Z,1.80
2022-12-17T08:12:50.382Z,1.95
2022-12-17T08:14:10.485Z,1.70
2022-12-17T08:15:30.660Z,2.38
2022-12-17T08:16:50.972Z,2.10
2022-12-17T08:18:11.229Z,2.55
2022-12-17T08:19:31.783Z,2.72
2022-12-17T08:20:51.872Z,2.70
2022-12-17T08:22:11.958Z,1.50
2022-12-17T08:23:32.108Z,2.00
2022-12-17T08:24:52.174Z,2.08
2022-12-17T08:26:12.626Z,2.95
2022-12-17T08:27:32.770Z,2.08
2022-12-17T08:28:53.156Z,2.22
2022-12-17T08:30:13.431Z,2.03
2022-12-17T08:31:34.300Z,3.05
2022-12-17T08:32:54.368Z,1.25
2022-12-17T08:34:14.814Z,2.60
2022-12-17T08:35:35.051Z,2.47
2022-12-17T08:36:55.228Z,1.75
2022-12-17T08:38:25.201Z,2.75
2022-12-17T08:39:45.389Z,2.33
2022-12-17T08:41:05.894Z,7.93
2022-12-17T08:42:26.408Z,1.48
2022-12-17T08:43:46.651Z,2.47
2022-12-17T08:45:06.755Z,2.17
2022-12-17T08:46:27.212Z,4.03
2022-12-17T08:47:47.474Z,1.20
2022-12-17T08:49:07.639Z,1.08
2022-12-17T08:50:28.321Z,1.67
2022-12-17T08:51:48.714Z,1.73
2022-12-17T08:53:09.100Z,2.70
2022-12-17T08:54:29.415Z,1.77
2022-12-17T08:55:49.812Z,1.48
2022-12-17T08:57:10.077Z,2.33
2022-12-17T08:58:30.650Z,1.85
2022-12-17T08:59:50.803Z,2.03
2022-12-17T09:01:11.243Z,1.92
2022-12-17T09:02:31.601Z,2.28
2022-12-17T09:03:51.900Z,1.65
2022-12-17T09:05:12.247Z,1.90
2022-12-17T09:06:40.983Z,1.30
2022-12-17T09:08:01.150Z,1.48
2022-12-17T09:09:21.728Z,2.35
2022-12-17T09:10:42.045Z,2.53
2022-12-17T09:12:02.121Z,3.92
2022-12-17T09:13:22.832Z,2.33
2022-12-17T09:14:43.415Z,1.65
2022-12-17T09:16:11.071Z,1.55
2022-12-17T09:17:31.360Z,1.60
2022-12-17T09:18:51.629Z,1.50
2022-12-17T09:20:11.922Z,1.90
2022-12-17T09:21:32.406Z,2.35
2022-12-17T09:22:53.442Z,1.52
2022-12-17T09:24:13.823Z,2.17
2022-12-17T09:25:34.199Z,1.80
2022-12-17T09:26:57.194Z,4.00
2022-12-17T09:28:20.667Z,4.22
2022-12-17T09:29:40.954Z,2.47
2022-12-17T09:31:01.251Z,2.95
2022-12-17T09:32:22.229Z,2.17
2022-12-17T09:33:42.663Z,1.40
2022-12-17T09:35:03.167Z,2.10
2022-12-17T09:36:24.770Z,2.38
2022-12-17T09:37:44.873Z,3.63
2022-12-17T09:39:04.952Z,4.32
2022-12-17T09:40:25.878Z,1.80
2022-12-17T09:41:49.024Z,2.90
2022-12-17T09:43:21.645Z,1.75
2022-12-17T09:44:58.088Z,2.25
2022-12-17T09:46:44.910Z,2.05
2022-12-17T09:48:07.932Z,2.67
2022-12-17T09:49:41.324Z,1.95
2022-12-17T09:51:16.011Z,1.95
2022-12-17T09:52:35.647Z,1.52
2022-12-17T09:54:18.022Z,1.40
2022-12-17T09:56:02.312Z,2.35
2022-12-17T09:57:23.184Z,2.47
2022-12-17T09:58:47.029Z,1.90
2022-12-17T10:00:07.164Z,1.48
2022-12-17T10:01:44.365Z,1.58
2022-12-17T10:03:04.810Z,1.10
2022-12-17T10:04:31.299Z,1.50
2022-12-17T10:05:51.543Z,1.85
2022-12-17T10:07:11.722Z,3.33
2022-12-17T10:08:34.926Z,2.63
2022-12-17T10:09:55.406Z,5.57
2022-12-17T10:11:34.403Z,8.27
2022-12-17T10:13:11.753Z,7.43
2022-12-17T10:14:38.631Z,4.20
2022-12-17T10:16:01.820Z,4.03
2022-12-17T10:17:22.643Z,9.10
2022-12-17T10:18:43.043Z,12.85
2022-12-17T10:20:07.426Z,11.25
2022-12-17T10:21:30.819Z,6.95
2022-12-17T10:23:01.685Z,9.60
2022-12-17T10:24:28.724Z,11.02
2022-12-17T10:25:50.024Z,8.90
2022-12-17T10:27:10.323Z,6.32
2022-12-17T10:28:39.569Z,6.53
2022-12-17T10:30:02.073Z,6.05
2022-12-17T10:31:34.004Z,7.72
2022-12-17T10:32:54.445Z,4.93
2022-12-17T10:34:16.772Z,4.45
2022-12-17T10:35:58.823Z,9.30
2022-12-17T10:37:19.479Z,4.40
2022-12-17T10:38:48.424Z,7.38
2022-12-17T10:40:17.273Z,5.32
2022-12-17T10:41:46.836Z,4.85
2022-12-17T10:43:07.072Z,4.40
2022-12-17T10:44:45.447Z,4.70
2022-12-17T10:46:14.737Z,5.35
2022-12-17T10:47:45.608Z,9.85
2022-12-17T10:49:11.250Z,9.90
2022-12-17T10:50:51.705Z,8.32
2022-12-17T10:52:18.781Z,9.90
2022-12-17T10:53:43.882Z,6.30
2022-12-17T10:55:15.192Z,9.88
2022-12-17T10:56:41.420Z,4.20
2022-12-17T10:58:02.161Z,6.07
2022-12-17T10:59:50.160Z,8.15
2022-12-17T11:01:19.114Z,11.95
2022-12-17T11:02:46.632Z,10.57
2022-12-17T11:04:13.054Z,7.10
2022-12-17T11:05:39.421Z,7.45
2022-12-17T11:07:01.734Z,9.27
2022-12-17T11:08:22.352Z,8.23
2022-12-17T11:10:03.714Z,7.43
2022-12-17T11:11:30.343Z,6.00
2022-12-17T11:13:28.264Z,8.13
2022-12-17T11:14:50.797Z,3.97
2022-12-17T11:16:13.991Z,7.38
2022-12-17T11:17:37.286Z,6.20
2022-12-17T11:19:17.498Z,9.98
2022-12-17T11:20:48.851Z,6.07
2022-12-17T11:22:15.906Z,6.95
2022-12-17T11:23:38.610Z,4.55
2022-12-17T11:25:03.589Z,5.28
2022-12-17T11:26:34.138Z,10.82
2022-12-17T11:28:02.354Z,13.95
2022-12-17T11:29:22.700Z,8.25
2022-12-17T11:30:42.899Z,4.30
2022-12-17T11:32:14.415Z,7.10
2022-12-17T11:33:50.893Z,7.13
2022-12-17T11:35:35.005Z,5.30
2022-12-17T11:37:25.655Z,4.68
2022-12-17T11:38:59.701Z,7.15
2022-12-17T11:40:33.695Z,10.77
2022-12-17T11:42:26.950Z,4.72
2022-12-17T11:44:34.553Z,4.72
2022-12-17T11:46:10.156Z,6.93
2022-12-17T11:48:13.921Z,7.50
2022-12-17T11:50:01.040Z,6.15
2022-12-17T11:51:58.786Z,13.95
2022-12-17T11:53:29.767Z,7.00
2022-12-17T11:55:10.626Z,7.57
2022-12-17T11:56:47.544Z,9.45
2022-12-17T11:58:18.705Z,16.45
2022-12-17T11:59:52.512Z,4.05
2022-12-17T12:01:28.114Z,5.40
2022-12-17T12:03:03.249Z,6.40
2022-12-17T12:04:51.193Z,10.48
2022-12-17T12:06:20.959Z,5.13
2022-12-17T12:08:01.551Z,7.50
2022-12-17T12:09:39.488Z,8.80
2022-12-17T12:11:37.381Z,5.55
2022-12-17T12:13:04.624Z,9.80
2022-12-17T12:14:58.814Z,7.13
2022-12-17T12:16:32.302Z,5.38
2022-12-17T12:18:04.638Z,8.85
2022-12-17T12:19:43.597Z,9.27
2022-12-17T12:21:41.276Z,17.60
2022-12-17T12:23:10.383Z,9.73
2022-12-17T12:25:01.728Z,7.30
2022-12-17T12:26:35.298Z,9.63
2022-12-17T12:28:10.846Z,5.43
2022-12-17T12:29:40.140Z,4.90
2022-12-17T12:31:52.999Z,6.80
2022-12-17T12:33:55.509Z,9.95
2022-12-17T12:35:26.850Z,4.82
2022-12-17T12:36:47.573Z,10.80
2022-12-17T12:38:07.755Z,9.30
2022-12-17T12:39:36.047Z,9.52
2022-12-17T12:41:13.289Z,7.53
2022-12-17T12:42:44.251Z,14.88
2022-12-17T12:44:13.573Z,17.58
2022-12-17T12:45:48.785Z,7.35
2022-12-17T12:47:17.919Z,6.78
2022-12-17T12:49:08.356Z,8.57
2022-12-17T12:50:31.448Z,6.30
2022-12-17T12:51:57.068Z,10.05
2022-12-17T12:53:18.454Z,8.05
2022-12-17T12:55:04.585Z,8.63
2022-12-17T12:56:42.955Z,9.95
2022-12-17T12:58:20.552Z,10.02
2022-12-17T12:59:49.576Z,8.00
2022-12-17T13:01:11.257Z,9.15
2022-12-17T13:02:39.854Z,8.93
2022-12-17T13:04:00.378Z,5.85
2022-12-17T13:05:20.617Z,7.53
2022-12-17T13:06:43.005Z,6.18
2022-12-17T13:07:44.425Z,9.82
2022-12-17T13:08:45.931Z,17.05
2022-12-17T13:09:51.546Z,6.25
2022-12-17T13:10:54.534Z,5.53
2022-12-17T13:12:14.539Z,4.55
2022-12-17T13:13:30.591Z,9.95
2022-12-17T13:14:53.418Z,7.70
2022-12-17T13:16:01.133Z,11.27
2022-12-17T13:17:22.427Z,13.15
2022-12-17T13:18:29.986Z,5.57
2022-12-17T13:19:32.029Z,6.43
2022-12-17T13:20:34.999Z,9.13
2022-12-17T13:21:36.771Z,15.48
2022-12-17T13:22:50.717Z,10.70
2022-12-17T13:23:53.213Z,9.50
2022-12-17T13:25:10.310Z,7.60
2022-12-17T13:26:21.378Z,5.55
2022-12-17T13:27:32.100Z,8.85
2022-12-17T13:28:33.786Z,16.77
2022-12-17T13:29:37.823Z,9.20
2022-12-17T13:30:39.512Z,7.90
2022-12-17T13:32:01.476Z,9.82
2022-12-17T13:33:46.386Z,15.57
2022-12-17T13:34:59.775Z,14.18
2022-12-17T13:36:10.412Z,13.32
2022-12-17T13:37:14.815Z,5.90
2022-12-17T13:38:21.685Z,14.40
2022-12-17T13:39:28.980Z,7.65
2022-12-17T13:41:10.062Z,8.23
2022-12-17T13:42:29.977Z,7.40
2022-12-17T13:43:34.255Z,9.20
2022-12-17T13:44:43.907Z,9.60
2022-12-17T13:45:46.151Z,8.10
2022-12-17T13:46:49.871Z,7.80
2022-12-17T13:47:56.761Z,10.75
2022-12-17T13:49:00.558Z,10.45
2022-12-17T13:50:33.772Z,4.75
2022-12-17T13:51:36.513Z,9.40
2022-12-17T13:52:38.038Z,12.32
2022-12-17T13:53:39.461Z,5.15
2022-12-17T13:54:42.846Z,12.23
2022-12-17T13:55:51.186Z,9.35
2022-12-17T13:56:53.407Z,7.57
2022-12-17T13:57:55.157Z,11.82
2022-12-17T13:59:00.887Z,7.70
2022-12-17T14:00:05.922Z,14.65
2022-12-17T14:01:14.638Z,13.88
2022-12-17T14:02:28.026Z,8.10
2022-12-17T14:03:56.598Z,9.05
2022-12-17T14:04:55.963Z,15.52
2022-12-17T14:05:59.713Z,14.93
2022-12-17T14:07:05.956Z,8.68
2022-12-17T14:08:07.499Z,10.38
2022-12-17T14:09:18.700Z,9.48
2022-12-17T14:10:20.806Z,5.55
2022-12-17T14:11:41.664Z,10.45
2022-12-17T14:12:43.885Z,8.15
2022-12-17T14:13:47.429Z,8.70
2022-12-17T14:14:56.087Z,11.45
2022-12-17T14:15:57.597Z,17.55
2022-12-17T14:17:00.415Z,4.22
2022-12-17T14:18:03.882Z,8.50
2022-12-17T14:19:05.407Z,8.07
2022-12-17T14:20:08.215Z,11.20
2022-12-17T14:21:10.582Z,10.27
2022-12-17T14:22:38.941Z,8.70
2022-12-17T14:23:42.128Z,10.63
2022-12-17T14:24:43.703Z,10.60
2022-12-17T14:25:45.304Z,5.00
2022-12-17T14:26:53.355Z,14.27
2022-12-17T14:28:00.381Z,4.25
2022-12-17T14:29:12.280Z,9.00
2022-12-17T14:30:42.906Z,6.60
2022-12-17T14:32:03.512Z,11.80
2022-12-17T14:33:24.796Z,5.85
2022-12-17T14:34:26.454Z,8.38
2022-12-17T14:35:30.588Z,8.75
2022-12-17T14:36:33.639Z,10.93
2022-12-17T14:37:35.639Z,9.88
2022-12-17T14:38:48.380Z,11.45
2022-12-17T14:39:50.759Z,7.63
2022-12-17T14:40:52.798Z,6.38
2022-12-17T14:42:25.677Z,11.00
2022-12-17T14:43:29.819Z,11.90
2022-12-17T14:44:31.879Z,4.40
2022-12-17T14:45:53.364Z,10.95
2022-12-17T14:47:10.046Z,12.60
2022-12-17T14:48:16.276Z,14.80
2022-12-17T14:49:22.002Z,10.68
2022-12-17T14:50:35.199Z,10.15
2022-12-17T14:51:42.489Z,11.75
2022-12-17T14:52:55.643Z,17.48
2022-12-17T14:54:16.750Z,6.47
2022-12-17T14:55:30.857Z,9.20
2022-12-17T14:56:32.799Z,8.60
2022-12-17T14:57:34.176Z,9.90
2022-12-17T14:58:45.660Z,8.73
2022-12-17T14:59:47.730Z,6.80
2022-12-17T15:01:12.661Z,6.53
2022-12-17T15:02:27.628Z,13.75
2022-12-17T15:03:33.602Z,8.07
2022-12-17T15:04:37.618Z,10.00
2022-12-17T15:05:39.144Z,17.13
2022-12-17T15:06:40.824Z,12.77
2022-12-17T15:07:42.575Z,7.07
2022-12-17T15:08:47.288Z,12.70
2022-12-17T15:09:48.814Z,8.55
2022-12-17T15:10:50.297Z,11.68
2022-12-17T15:11:51.823Z,10.38
2022-12-17T15:12:53.579Z,5.85
2022-12-17T15:13:56.764Z,8.00
2022-12-17T15:14:58.559Z,6.18
2022-12-17T15:15:59.945Z,15.13
2022-12-17T15:17:03.612Z,10.20
2022-12-17T15:18:05.196Z,14.50
2022-12-17T15:19:07.165Z,12.23
2022-12-17T15:20:16.813Z,11.93
2022-12-17T15:21:19.126Z,19.13
2022-12-17T15:22:20.699Z,10.55
2022-12-17T15:23:23.752Z,10.18
2022-12-17T15:24:25.634Z,7.95
2022-12-17T15:25:27.528Z,10.68
2022-12-17T15:26:28.990Z,9.98
2022-12-17T15:27:30.449Z,9.65
2022-12-17T15:28:31.883Z,12.80
2022-12-17T15:29:34.938Z,9.35
2022-12-17T15:30:36.795Z,9.75
2022-12-17T15:31:38.374Z,14.60
2022-12-17T15:32:39.984Z,9.73
2022-12-17T15:33:42.597Z,14.70
2022-12-17T15:34:44.994Z,6.18
2022-12-17T15:35:46.389Z,13.98
2022-12-17T15:36:47.863Z,12.70
2022-12-17T15:37:49.494Z,14.40
2022-12-17T15:38:51.176Z,10.93
2022-12-17T15:39:52.702Z,10.18
2022-12-17T15:40:54.379Z,10.50
2022-12-17T15:42:14.461Z,9.07
2022-12-17T15:43:16.060Z,9.43
2022-12-17T15:44:17.565Z,7.22
2022-12-17T15:45:19.445Z,14.57
2022-12-17T15:46:20.953Z,11.70
2022-12-17T15:47:22.633Z,15.27
2022-12-17T15:48:24.064Z,10.13
2022-12-17T15:49:25.478Z,10.65
2022-12-17T15:50:27.215Z,17.35
2022-12-17T15:51:28.655Z,6.35
2022-12-17T15:52:30.214Z,6.40
2022-12-17T15:53:31.677Z,6.85
2022-12-17T15:54:33.605Z,7.68
2022-12-17T15:55:36.312Z,10.60
2022-12-17T15:56:37.846Z,7.22
2022-12-17T15:57:39.541Z,10.57
2022-12-17T15:58:42.061Z,6.82
2022-12-17T15:59:43.697Z,5.53
2022-12-17T16:00:45.104Z,10.80
2022-12-17T16:01:46.833Z,8.25
2022-12-17T16:02:49.626Z,10.77
2022-12-17T16:03:54.873Z,8.02
2022-12-17T16:04:56.516Z,7.60
2022-12-17T16:06:01.613Z,4.10
2022-12-17T16:07:04.496Z,11.43
2022-12-17T16:08:06.062Z,13.45
2022-12-17T16:09:07.524Z,16.77
2022-12-17T16:10:10.583Z,11.55
2022-12-17T16:11:13.847Z,7.95
2022-12-17T16:12:15.454Z,8.82
2022-12-17T16:13:16.907Z,8.60
2022-12-17T16:14:18.662Z,16.25
2022-12-17T16:15:20.123Z,12.18
2022-12-17T16:16:22.136Z,12.68
2022-12-17T16:17:26.026Z,8.07
2022-12-17T16:18:27.414Z,10.68
2022-12-17T16:19:28.866Z,10.95
2022-12-17T16:20:30.357Z,7.60
2022-12-17T16:21:31.819Z,7.97
2022-12-17T16:22:33.619Z,10.20
2022-12-17T16:23:36.132Z,6.90
2022-12-17T16:24:38.369Z,12.10
2022-12-17T16:25:40.296Z,10.10
2022-12-17T16:26:41.832Z,8.93
2022-12-17T16:27:43.320Z,5.30
2022-12-17T16:28:45.532Z,9.35
2022-12-17T16:29:48.214Z,5.65
2022-12-17T16:31:11.692Z,8.50
2022-12-17T16:32:14.127Z,9.18
2022-12-17T16:33:15.524Z,9.40
2022-12-17T16:34:17.029Z,16.15
2022-12-17T16:35:23.683Z,6.75
2022-12-17T16:36:25.093Z,6.95
2022-12-17T16:37:26.794Z,8.20
2022-12-17T16:38:28.420Z,5.88
2022-12-17T16:39:29.924Z,13.27
2022-12-17T16:40:31.402Z,8.73
2022-12-17T16:41:32.978Z,10.70
2022-12-17T16:42:34.915Z,10.23
2022-12-17T16:43:36.340Z,10.43
2022-12-17T16:44:38.253Z,11.18
2022-12-17T16:45:50.680Z,15.38
2022-12-17T16:46:52.398Z,18.02
2022-12-17T16:47:53.884Z,9.73
2022-12-17T16:48:56.518Z,6.80
2022-12-17T16:49:58.013Z,7.88
2022-12-17T16:50:59.480Z,11.65
2022-12-17T16:52:02.190Z,7.35
2022-12-17T16:53:03.612Z,9.13
2022-12-17T16:54:14.977Z,7.25
2022-12-17T16:55:16.490Z,10.93
2022-12-17T16:56:24.405Z,14.15
2022-12-17T16:57:26.357Z,5.50
2022-12-17T16:58:27.954Z,6.78
2022-12-17T16:59:30.105Z,6.85
2022-12-17T17:00:31.637Z,12.30
2022-12-17T17:01:33.368Z,6.75
2022-12-17T17:02:35.142Z,8.52
2022-12-17T17:03:40.999Z,5.95
2022-12-17T17:04:44.880Z,9.23
2022-12-17T17:05:46.225Z,7.80
2022-12-17T17:06:53.247Z,10.68
2022-12-17T17:07:54.701Z,12.80
2022-12-17T17:08:56.083Z,5.10
2022-12-17T17:09:58.148Z,10.60
2022-12-17T17:11:14.412Z,6.15
2022-12-17T17:12:15.835Z,6.32
2022-12-17T17:13:17.408Z,6.00
2022-12-17T17:14:19.183Z,10.20
2022-12-17T17:15:21.203Z,9.55
2022-12-17T17:16:24.706Z,5.95
2022-12-17T17:17:56.030Z,9.70
2022-12-17T17:18:48.342Z,9.07
2022-12-17T17:19:50.068Z,9.60
2022-12-17T17:20:51.513Z,11.25
2022-12-17T17:21:54.488Z,9.75
2022-12-17T17:22:56.155Z,11.02
2022-12-17T17:24:01.232Z,16.65